Beerse, Belgium
Current Conditions -  °F | °C
As of 5:40 PM on Friday 24 Oct 2014 (Local Time) from EHGR Reporting Station
Overcast Overcast  
Wind Chill: 55°   Ceiling: 1300
Heat Index: 55°   Visibility: 6mi
Dew Point: 52°   Wind: 12mph
Humidity: 88%   Direction: 190°S
Pressure: 30"   Gusts: NA
Location:  51.32°N, 4.85°E
Report Text: EHGR 241540Z AUTO 19010KT 9999 FEW011 BKN013 OVC017 13/11 Q1016 REDZ GRN
Loading
Personal Weather Stations






























Interactive Weather Map New forecast layout! Learn more

10-Day Weather Forecast

Advertisements
Track Severe Weather on mobile